Terminal Aerodrome Forecast
Issued by NWS

Current Version | Previous Version | Graphics & Text | Print | Product List | Glossary On
Versions: 1 2 3 4 5 6 7 8 9 10 11 12 13 14 15 16 17 18 19 20 21 22
000
FTUS41 KRLX 261400 AAA
TAFCKB
TAF AMD
KCKB 261436Z 2615/2712 02005KT P6SM OVC035
     FM262100 32007KT 5SM -SHSN BR OVC025
     FM262300 32006KT 3SM -SHSN BR OVC020
     FM270900 32005KT 5SM -SHSN BKN025=

USA.gov is the U.S. government's official web portal to all federal, state and local government web resources and services.